PWSweather.com
Personal Weather Stations
Station Observations
KOHAVON11
Long Road Station, Avon, OH 44011

Long Road StationAvon, OH 44011

Lat: 41.437, Lon: -82.0477

Elevation: 686

Station Type: Davis Vantage Pro2

http://www.avon-weather.com

High Low Average
Temperature 41.4°F5.2°C 31.8°F-0.1°C 35.9°F2.2°C
Dew Point 37.2°F2.9°C 19.8°F-6.8°C 25.2°F-3.8°C
Winds 14.0 mph 22.5 kmh Calm Calm 4.0 mph WSW6.4 kmh WSW
Wind Gusts 20.0 mph32.2 kmh -- 9.0 mph14.5 kmh
Humidity 87% 53% 66%
Pressure 30.20 in1022.7 mb 30.00 in1015.9 mb -
Precipitation 0.02 in0.5 mm - -
Hour Temp Dew Point Humidity Winds Wind Gusts Pressure Precip Precip Rate Daily Precip Total
12:00 AM 51.1°F10.6°C 41.5°F5.3°C 70% 6.0 mph SW9.7 kmh SW 16.0 mph25.7 kmh 29.92 in1013.2 mb 0.00 in0.0 mm 0.00 in0.0 mm 0.00 in0.0 mm
12:05 AM 51.1°F10.6°C 41.5°F5.3°C 70% 16.0 mph WNW25.7 kmh WNW 19.0 mph30.6 kmh 29.94 in1013.9 mb 0.00 in0.0 mm 0.00 in0.0 mm 0.00 in0.0 mm
12:10 AM 49.9°F9.9°C 40.0°F4.4°C 69% 8.0 mph WNW12.9 kmh WNW 20.0 mph32.2 kmh 29.95 in1014.2 mb 0.00 in0.0 mm 0.00 in0.0 mm 0.00 in0.0 mm
12:15 AM 48.1°F8.9°C 39.0°F3.9°C 71% 13.0 mph WNW20.9 kmh WNW 24.0 mph38.6 kmh 29.95 in1014.2 mb 0.00 in0.0 mm 0.00 in0.0 mm 0.00 in0.0 mm
12:20 AM 46.8°F8.2°C 38.8°F3.8°C 74% 10.0 mph WNW16.1 kmh WNW 24.0 mph38.6 kmh 29.96 in1014.6 mb 0.00 in0.0 mm 0.00 in0.0 mm 0.00 in0.0 mm
12:25 AM 45.6°F7.6°C 38.4°F3.6°C 76% 8.0 mph NW12.9 kmh NW 24.0 mph38.6 kmh 29.97 in1014.9 mb 0.00 in0.0 mm 0.00 in0.0 mm 0.00 in0.0 mm
12:30 AM 44.6°F7.0°C 38.1°F3.4°C 78% 13.0 mph WNW20.9 kmh WNW 24.0 mph38.6 kmh 29.97 in1014.9 mb 0.00 in0.0 mm 0.00 in0.0 mm 0.00 in0.0 mm
12:35 AM 43.7°F6.5°C 37.6°F3.1°C 79% 10.0 mph NW16.1 kmh NW 22.0 mph35.4 kmh 29.98 in1015.2 mb 0.00 in0.0 mm 0.00 in0.0 mm 0.00 in0.0 mm
12:40 AM 43.2°F6.2°C 37.4°F3.0°C 80% 10.0 mph NW16.1 kmh NW 22.0 mph35.4 kmh 29.98 in1015.2 mb 0.00 in0.0 mm 0.00 in0.0 mm 0.00 in0.0 mm
12:45 AM 42.7°F5.9°C 37.2°F2.9°C 81% 6.0 mph WNW9.7 kmh WNW 21.0 mph33.8 kmh 29.99 in1015.6 mb 0.00 in0.0 mm 0.00 in0.0 mm 0.00 in0.0 mm
12:50 AM 42.2°F5.7°C 37.4°F3.0°C 83% 10.0 mph WNW16.1 kmh WNW 21.0 mph33.8 kmh 29.99 in1015.6 mb 0.00 in0.0 mm 0.00 in0.0 mm 0.00 in0.0 mm
12:55 AM 41.8°F5.4°C 37.6°F3.1°C 85% 9.0 mph N14.5 kmh N 19.0 mph30.6 kmh 30.00 in1015.9 mb 0.00 in0.0 mm 0.00 in0.0 mm 0.00 in0.0 mm
01:00 AM 41.4°F5.2°C 37.2°F2.9°C 85% 11.0 mph NW17.7 kmh NW 19.0 mph30.6 kmh 30.00 in1015.9 mb 0.00 in0.0 mm 0.00 in0.0 mm 0.02 in0.5 mm
01:05 AM 41.0°F5.0°C 37.1°F2.8°C 86% 9.0 mph NW14.5 kmh NW 19.0 mph30.6 kmh 30.00 in1015.9 mb 0.00 in0.0 mm 0.00 in0.0 mm 0.02 in0.5 mm
01:10 AM 40.7°F4.8°C 36.8°F2.7°C 86% 11.0 mph NW17.7 kmh NW 19.0 mph30.6 kmh 30.01 in1016.3 mb 0.00 in0.0 mm 0.00 in0.0 mm 0.02 in0.5 mm
01:15 AM 40.4°F4.7°C 36.8°F2.7°C 87% 5.0 mph WNW8.0 kmh WNW 19.0 mph30.6 kmh 30.02 in1016.6 mb 0.00 in0.0 mm 0.00 in0.0 mm 0.02 in0.5 mm
01:20 AM 40.0°F4.4°C 36.4°F2.4°C 87% 8.0 mph NW12.9 kmh NW 20.0 mph32.2 kmh 30.02 in1016.6 mb 0.00 in0.0 mm 0.00 in0.0 mm 0.02 in0.5 mm
01:25 AM 39.6°F4.2°C 35.8°F2.1°C 86% 11.0 mph WNW17.7 kmh WNW 20.0 mph32.2 kmh 30.02 in1016.6 mb 0.00 in0.0 mm 0.00 in0.0 mm 0.02 in0.5 mm
01:30 AM 39.3°F4.1°C 35.5°F1.9°C 86% 8.0 mph NW12.9 kmh NW 20.0 mph32.2 kmh 30.03 in1016.9 mb 0.00 in0.0 mm 0.00 in0.0 mm 0.02 in0.5 mm
01:35 AM 39.0°F3.9°C 35.2°F1.8°C 86% 8.0 mph WNW12.9 kmh WNW 20.0 mph32.2 kmh 30.04 in1017.3 mb 0.00 in0.0 mm 0.00 in0.0 mm 0.02 in0.5 mm
01:40 AM 38.7°F3.7°C 34.9°F1.6°C 86% 7.0 mph NW11.3 kmh NW 15.0 mph24.1 kmh 30.04 in1017.3 mb 0.00 in0.0 mm 0.00 in0.0 mm 0.02 in0.5 mm
01:45 AM 38.5°F3.6°C 34.7°F1.5°C 86% 14.0 mph NW22.5 kmh NW 15.0 mph24.1 kmh 30.04 in1017.3 mb 0.00 in0.0 mm 0.00 in0.0 mm 0.02 in0.5 mm
01:50 AM 38.2°F3.4°C 34.4°F1.3°C 86% 7.0 mph NW11.3 kmh NW 17.0 mph27.4 kmh 30.05 in1017.6 mb 0.00 in0.0 mm 0.00 in0.0 mm 0.02 in0.5 mm
01:55 AM 37.8°F3.2°C 33.7°F0.9°C 85% 10.0 mph WNW16.1 kmh WNW 19.0 mph30.6 kmh 30.05 in1017.6 mb 0.00 in0.0 mm 0.00 in0.0 mm 0.02 in0.5 mm
02:00 AM 37.4°F3.0°C 33.3°F0.7°C 85% 8.0 mph WNW12.9 kmh WNW 19.0 mph30.6 kmh 30.05 in1017.6 mb 0.00 in0.0 mm 0.00 in0.0 mm 0.02 in0.5 mm
02:05 AM 37.2°F2.9°C 32.8°F0.4°C 84% 4.0 mph W6.4 kmh W 19.0 mph30.6 kmh 30.06 in1017.9 mb 0.00 in0.0 mm 0.00 in0.0 mm 0.02 in0.5 mm
02:10 AM 36.9°F2.7°C 32.2°F0.1°C 83% 8.0 mph NW12.9 kmh NW 19.0 mph30.6 kmh 30.07 in1018.3 mb 0.00 in0.0 mm 0.00 in0.0 mm 0.02 in0.5 mm
02:15 AM 36.6°F2.6°C 31.6°F-0.2°C 82% 3.0 mph NNW4.8 kmh NNW 13.0 mph20.9 kmh 30.07 in1018.3 mb 0.00 in0.0 mm 0.00 in0.0 mm 0.02 in0.5 mm
02:20 AM 36.2°F2.3°C 30.6°F-0.8°C 80% 8.0 mph NW12.9 kmh NW 16.0 mph25.7 kmh 30.07 in1018.3 mb 0.00 in0.0 mm 0.00 in0.0 mm 0.02 in0.5 mm
02:25 AM 35.9°F2.2°C 30.0°F-1.1°C 79% 8.0 mph NW12.9 kmh NW 16.0 mph25.7 kmh 30.07 in1018.3 mb 0.00 in0.0 mm 0.00 in0.0 mm 0.02 in0.5 mm
02:30 AM 35.6°F2.0°C 29.4°F-1.4°C 78% 6.0 mph N9.7 kmh N 16.0 mph25.7 kmh 30.08 in1018.6 mb 0.00 in0.0 mm 0.00 in0.0 mm 0.02 in0.5 mm
02:35 AM 35.5°F1.9°C 29.0°F-1.7°C 77% 8.0 mph NNW12.9 kmh NNW 16.0 mph25.7 kmh 30.08 in1018.6 mb 0.00 in0.0 mm 0.00 in0.0 mm 0.02 in0.5 mm
02:40 AM 35.4°F1.9°C 28.5°F-1.9°C 76% 5.0 mph NNE8.0 kmh NNE 15.0 mph24.1 kmh 30.08 in1018.6 mb 0.00 in0.0 mm 0.00 in0.0 mm 0.02 in0.5 mm
02:45 AM 35.3°F1.8°C 28.4°F-2.0°C 76% 8.0 mph NW12.9 kmh NW 15.0 mph24.1 kmh 30.08 in1018.6 mb 0.00 in0.0 mm 0.00 in0.0 mm 0.02 in0.5 mm
02:50 AM 35.1°F1.7°C 27.6°F-2.4°C 74% 3.0 mph N4.8 kmh N 16.0 mph25.7 kmh 30.08 in1018.6 mb 0.00 in0.0 mm 0.00 in0.0 mm 0.02 in0.5 mm
02:55 AM 35.1°F1.7°C 27.6°F-2.4°C 74% 6.0 mph NNE9.7 kmh NNE 16.0 mph25.7 kmh 30.08 in1018.6 mb 0.00 in0.0 mm 0.00 in0.0 mm 0.02 in0.5 mm
03:00 AM 35.0°F1.7°C 27.5°F-2.5°C 74% 3.0 mph N4.8 kmh N 16.0 mph25.7 kmh 30.09 in1019.0 mb 0.00 in0.0 mm 0.00 in0.0 mm 0.02 in0.5 mm
03:05 AM 35.0°F1.7°C 27.5°F-2.5°C 74% 9.0 mph NNE14.5 kmh NNE 16.0 mph25.7 kmh 30.09 in1019.0 mb 0.00 in0.0 mm 0.00 in0.0 mm 0.02 in0.5 mm
03:10 AM 34.9°F1.6°C 27.0°F-2.8°C 73% 7.0 mph NW11.3 kmh NW 14.0 mph22.5 kmh 30.09 in1019.0 mb 0.00 in0.0 mm 0.00 in0.0 mm 0.02 in0.5 mm
03:15 AM 34.8°F1.6°C 26.6°F-3.0°C 72% 6.0 mph NW9.7 kmh NW 14.0 mph22.5 kmh 30.09 in1019.0 mb 0.00 in0.0 mm 0.00 in0.0 mm 0.02 in0.5 mm
03:20 AM 34.8°F1.6°C 26.6°F-3.0°C 72% 2.0 mph WNW3.2 kmh WNW 14.0 mph22.5 kmh 30.09 in1019.0 mb 0.00 in0.0 mm 0.00 in0.0 mm 0.02 in0.5 mm
03:25 AM 34.8°F1.6°C 26.6°F-3.0°C 72% 4.0 mph NW6.4 kmh NW 14.0 mph22.5 kmh 30.09 in1019.0 mb 0.00 in0.0 mm 0.00 in0.0 mm 0.02 in0.5 mm
03:30 AM 34.8°F1.6°C 26.6°F-3.0°C 72% 4.0 mph WNW6.4 kmh WNW 14.0 mph22.5 kmh 30.09 in1019.0 mb 0.00 in0.0 mm 0.00 in0.0 mm 0.02 in0.5 mm
03:35 AM 34.8°F1.6°C 26.6°F-3.0°C 72% 9.0 mph NNW14.5 kmh NNW 12.0 mph19.3 kmh 30.09 in1019.0 mb 0.00 in0.0 mm 0.00 in0.0 mm 0.02 in0.5 mm
03:40 AM 34.7°F1.5°C 26.5°F-3.1°C 72% 4.0 mph NW6.4 kmh NW 13.0 mph20.9 kmh 30.09 in1019.0 mb 0.00 in0.0 mm 0.00 in0.0 mm 0.02 in0.5 mm
03:45 AM 34.7°F1.5°C 26.5°F-3.1°C 72% 3.0 mph NNE4.8 kmh NNE 13.0 mph20.9 kmh 30.09 in1019.0 mb 0.00 in0.0 mm 0.00 in0.0 mm 0.02 in0.5 mm
03:50 AM 34.6°F1.4°C 26.1°F-3.3°C 71% 3.0 mph NW4.8 kmh NW 13.0 mph20.9 kmh 30.09 in1019.0 mb 0.00 in0.0 mm 0.00 in0.0 mm 0.02 in0.5 mm
03:55 AM 34.6°F1.4°C 26.1°F-3.3°C 71% 3.0 mph NNW4.8 kmh NNW 13.0 mph20.9 kmh 30.09 in1019.0 mb 0.00 in0.0 mm 0.00 in0.0 mm 0.02 in0.5 mm
04:00 AM 34.6°F1.4°C 25.7°F-3.5°C 70% 4.0 mph NNW6.4 kmh NNW 11.0 mph17.7 kmh 30.09 in1019.0 mb 0.00 in0.0 mm 0.00 in0.0 mm 0.02 in0.5 mm
04:05 AM 34.5°F1.4°C 25.6°F-3.6°C 70% 4.0 mph NNW6.4 kmh NNW 11.0 mph17.7 kmh 30.10 in1019.3 mb 0.00 in0.0 mm 0.00 in0.0 mm 0.02 in0.5 mm
04:10 AM 34.4°F1.3°C 25.5°F-3.6°C 70% 3.0 mph NW4.8 kmh NW 10.0 mph16.1 kmh 30.09 in1019.0 mb 0.00 in0.0 mm 0.00 in0.0 mm 0.02 in0.5 mm
04:15 AM 34.4°F1.3°C 25.5°F-3.6°C 70% 7.0 mph WNW11.3 kmh WNW 13.0 mph20.9 kmh 30.10 in1019.3 mb 0.00 in0.0 mm 0.00 in0.0 mm 0.02 in0.5 mm
04:20 AM 34.4°F1.3°C 25.5°F-3.6°C 70% 6.0 mph NW9.7 kmh NW 13.0 mph20.9 kmh 30.10 in1019.3 mb 0.00 in0.0 mm 0.00 in0.0 mm 0.02 in0.5 mm
04:25 AM 34.3°F1.3°C 25.4°F-3.7°C 70% 7.0 mph WNW11.3 kmh WNW 13.0 mph20.9 kmh 30.10 in1019.3 mb 0.00 in0.0 mm 0.00 in0.0 mm 0.02 in0.5 mm
04:30 AM 34.2°F1.2°C 25.3°F-3.7°C 70% 6.0 mph NW9.7 kmh NW 13.0 mph20.9 kmh 30.10 in1019.3 mb 0.00 in0.0 mm 0.00 in0.0 mm 0.02 in0.5 mm
04:35 AM 34.0°F1.1°C 24.8°F-4.0°C 69% 4.0 mph W6.4 kmh W 11.0 mph17.7 kmh 30.10 in1019.3 mb 0.00 in0.0 mm 0.00 in0.0 mm 0.02 in0.5 mm
04:40 AM 33.9°F1.1°C 24.3°F-4.3°C 68% 5.0 mph WNW8.0 kmh WNW 11.0 mph17.7 kmh 30.10 in1019.3 mb 0.00 in0.0 mm 0.00 in0.0 mm 0.02 in0.5 mm
04:45 AM 33.7°F0.9°C 23.8°F-4.6°C 67% 6.0 mph WNW9.7 kmh WNW 11.0 mph17.7 kmh 30.10 in1019.3 mb 0.00 in0.0 mm 0.00 in0.0 mm 0.02 in0.5 mm
04:50 AM 33.7°F0.9°C 23.4°F-4.8°C 66% 8.0 mph WNW12.9 kmh WNW 11.0 mph17.7 kmh 30.10 in1019.3 mb 0.00 in0.0 mm 0.00 in0.0 mm 0.02 in0.5 mm
04:55 AM 33.5°F0.8°C 23.2°F-4.9°C 66% 6.0 mph WNW9.7 kmh WNW 11.0 mph17.7 kmh 30.10 in1019.3 mb 0.00 in0.0 mm 0.00 in0.0 mm 0.02 in0.5 mm
05:00 AM 33.5°F0.8°C 23.2°F-4.9°C 66% 7.0 mph WNW11.3 kmh WNW 11.0 mph17.7 kmh 30.10 in1019.3 mb 0.00 in0.0 mm 0.00 in0.0 mm 0.02 in0.5 mm
05:05 AM 33.3°F0.7°C 23.0°F-5.0°C 66% 5.0 mph NW8.0 kmh NW 10.0 mph16.1 kmh 30.10 in1019.3 mb 0.00 in0.0 mm 0.00 in0.0 mm 0.02 in0.5 mm
05:10 AM 33.2°F0.7°C 22.6°F-5.2°C 65% 6.0 mph NW9.7 kmh NW 10.0 mph16.1 kmh 30.10 in1019.3 mb 0.00 in0.0 mm 0.00 in0.0 mm 0.02 in0.5 mm
05:15 AM 33.2°F0.7°C 22.6°F-5.2°C 65% 5.0 mph NW8.0 kmh NW 11.0 mph17.7 kmh 30.11 in1019.6 mb 0.00 in0.0 mm 0.00 in0.0 mm 0.02 in0.5 mm
05:20 AM 33.1°F0.6°C 22.1°F-5.5°C 64% 5.0 mph WNW8.0 kmh WNW 11.0 mph17.7 kmh 30.11 in1019.6 mb 0.00 in0.0 mm 0.00 in0.0 mm 0.02 in0.5 mm
05:25 AM 33.1°F0.6°C 22.1°F-5.5°C 64% 5.0 mph WNW8.0 kmh WNW 11.0 mph17.7 kmh 30.11 in1019.6 mb 0.00 in0.0 mm 0.00 in0.0 mm 0.02 in0.5 mm
05:30 AM 32.9°F0.5°C 21.9°F-5.6°C 64% 5.0 mph NW8.0 kmh NW 11.0 mph17.7 kmh 30.11 in1019.6 mb 0.00 in0.0 mm 0.00 in0.0 mm 0.02 in0.5 mm
05:35 AM 32.9°F0.5°C 21.9°F-5.6°C 64% 4.0 mph WNW6.4 kmh WNW 9.0 mph14.5 kmh 30.11 in1019.6 mb 0.00 in0.0 mm 0.00 in0.0 mm 0.02 in0.5 mm
05:40 AM 32.8°F0.4°C 21.4°F-5.9°C 63% 7.0 mph NW11.3 kmh NW 10.0 mph16.1 kmh 30.11 in1019.6 mb 0.00 in0.0 mm 0.00 in0.0 mm 0.02 in0.5 mm
05:45 AM 32.8°F0.4°C 21.4°F-5.9°C 63% 3.0 mph WNW4.8 kmh WNW 11.0 mph17.7 kmh 30.11 in1019.6 mb 0.00 in0.0 mm 0.00 in0.0 mm 0.02 in0.5 mm
05:50 AM 32.8°F0.4°C 21.4°F-5.9°C 63% 2.0 mph NW3.2 kmh NW 11.0 mph17.7 kmh 30.11 in1019.6 mb 0.00 in0.0 mm 0.00 in0.0 mm 0.02 in0.5 mm
05:55 AM 32.7°F0.4°C 21.3°F-5.9°C 63% 2.0 mph NNW3.2 kmh NNW 11.0 mph17.7 kmh 30.11 in1019.6 mb 0.00 in0.0 mm 0.00 in0.0 mm 0.02 in0.5 mm
06:00 AM 32.6°F0.3°C 21.2°F-6.0°C 63% 3.0 mph NW4.8 kmh NW 11.0 mph17.7 kmh 30.11 in1019.6 mb 0.00 in0.0 mm 0.00 in0.0 mm 0.02 in0.5 mm
06:05 AM 32.5°F0.3°C 21.5°F-5.8°C 64% 3.0 mph NW4.8 kmh NW 6.0 mph9.7 kmh 30.12 in1020.0 mb 0.00 in0.0 mm 0.00 in0.0 mm 0.02 in0.5 mm
06:10 AM 32.4°F0.2°C 21.4°F-5.9°C 64% 4.0 mph N6.4 kmh N 8.0 mph12.9 kmh 30.12 in1020.0 mb 0.00 in0.0 mm 0.00 in0.0 mm 0.02 in0.5 mm
06:15 AM 32.3°F0.2°C 21.3°F-5.9°C 64% 6.0 mph W9.7 kmh W 8.0 mph12.9 kmh 30.12 in1020.0 mb 0.00 in0.0 mm 0.00 in0.0 mm 0.02 in0.5 mm
06:20 AM 32.3°F0.2°C 20.9°F-6.2°C 63% 8.0 mph NW12.9 kmh NW 9.0 mph14.5 kmh 30.12 in1020.0 mb 0.00 in0.0 mm 0.00 in0.0 mm 0.02 in0.5 mm
06:25 AM 32.3°F0.2°C 20.9°F-6.2°C 63% 3.0 mph NW4.8 kmh NW 9.0 mph14.5 kmh 30.12 in1020.0 mb 0.00 in0.0 mm 0.00 in0.0 mm 0.02 in0.5 mm
06:30 AM 32.2°F0.1°C 20.9°F-6.2°C 63% 3.0 mph NNW4.8 kmh NNW 9.0 mph14.5 kmh 30.12 in1020.0 mb 0.00 in0.0 mm 0.00 in0.0 mm 0.02 in0.5 mm
06:35 AM 32.1°F0.1°C 20.8°F-6.2°C 63% 4.0 mph NW6.4 kmh NW 9.0 mph14.5 kmh 30.13 in1020.3 mb 0.00 in0.0 mm 0.00 in0.0 mm 0.02 in0.5 mm
06:40 AM 32.0°F0.0°C 20.3°F-6.5°C 62% 4.0 mph NW6.4 kmh NW 9.0 mph14.5 kmh 30.13 in1020.3 mb 0.00 in0.0 mm 0.00 in0.0 mm 0.02 in0.5 mm
06:45 AM 32.0°F0.0°C 19.9°F-6.7°C 61% 4.0 mph NNW6.4 kmh NNW 9.0 mph14.5 kmh 30.13 in1020.3 mb 0.00 in0.0 mm 0.00 in0.0 mm 0.02 in0.5 mm
06:50 AM 32.0°F0.0°C 19.9°F-6.7°C 61% Calm Calm 9.0 mph14.5 kmh 30.13 in1020.3 mb 0.00 in0.0 mm 0.00 in0.0 mm 0.02 in0.5 mm
06:55 AM 31.9°F-0.1°C 19.8°F-6.8°C 61% 4.0 mph NW6.4 kmh NW 6.0 mph9.7 kmh 30.14 in1020.7 mb 0.00 in0.0 mm 0.00 in0.0 mm 0.02 in0.5 mm
07:00 AM 31.9°F-0.1°C 20.2°F-6.6°C 62% 3.0 mph NNW4.8 kmh NNW 6.0 mph9.7 kmh 30.14 in1020.7 mb 0.00 in0.0 mm 0.00 in0.0 mm 0.02 in0.5 mm
07:05 AM 31.8°F-0.1°C 20.1°F-6.6°C 62% 1.0 mph NW1.6 kmh NW 6.0 mph9.7 kmh 30.14 in1020.7 mb 0.00 in0.0 mm 0.00 in0.0 mm 0.02 in0.5 mm
07:10 AM 31.8°F-0.1°C 20.5°F-6.4°C 63% 1.0 mph N1.6 kmh N 6.0 mph9.7 kmh 30.14 in1020.7 mb 0.00 in0.0 mm 0.00 in0.0 mm 0.02 in0.5 mm
07:15 AM 31.8°F-0.1°C 20.5°F-6.4°C 63% 3.0 mph NW4.8 kmh NW 6.0 mph9.7 kmh 30.14 in1020.7 mb 0.00 in0.0 mm 0.00 in0.0 mm 0.02 in0.5 mm
07:20 AM 31.8°F-0.1°C 20.5°F-6.4°C 63% 3.0 mph NNW4.8 kmh NNW 6.0 mph9.7 kmh 30.14 in1020.7 mb 0.00 in0.0 mm 0.00 in0.0 mm 0.02 in0.5 mm
07:25 AM 31.8°F-0.1°C 20.5°F-6.4°C 63% 4.0 mph NW6.4 kmh NW 4.0 mph6.4 kmh 30.14 in1020.7 mb 0.00 in0.0 mm 0.00 in0.0 mm 0.02 in0.5 mm
07:30 AM 31.8°F-0.1°C 20.5°F-6.4°C 63% 3.0 mph NW4.8 kmh NW 4.0 mph6.4 kmh 30.15 in1021.0 mb 0.00 in0.0 mm 0.00 in0.0 mm 0.02 in0.5 mm
07:35 AM 31.8°F-0.1°C 20.5°F-6.4°C 63% 3.0 mph NW4.8 kmh NW 4.0 mph6.4 kmh 30.15 in1021.0 mb 0.00 in0.0 mm 0.00 in0.0 mm 0.02 in0.5 mm
07:40 AM 31.8°F-0.1°C 20.5°F-6.4°C 63% 2.0 mph NW3.2 kmh NW 4.0 mph6.4 kmh 30.15 in1021.0 mb 0.00 in0.0 mm 0.00 in0.0 mm 0.02 in0.5 mm
07:45 AM 31.8°F-0.1°C 20.9°F-6.2°C 64% 3.0 mph NW4.8 kmh NW 4.0 mph6.4 kmh 30.15 in1021.0 mb 0.00 in0.0 mm 0.00 in0.0 mm 0.02 in0.5 mm
07:50 AM 31.9°F-0.1°C 20.9°F-6.2°C 64% 3.0 mph NW4.8 kmh NW 7.0 mph11.3 kmh 30.16 in1021.3 mb 0.00 in0.0 mm 0.00 in0.0 mm 0.02 in0.5 mm
07:55 AM 31.9°F-0.1°C 20.6°F-6.3°C 63% 2.0 mph NW3.2 kmh NW 7.0 mph11.3 kmh 30.16 in1021.3 mb 0.00 in0.0 mm 0.00 in0.0 mm 0.02 in0.5 mm
08:00 AM 32.0°F0.0°C 21.0°F-6.1°C 64% 2.0 mph NW3.2 kmh NW 7.0 mph11.3 kmh 30.16 in1021.3 mb 0.00 in0.0 mm 0.00 in0.0 mm 0.02 in0.5 mm
08:05 AM 32.1°F0.1°C 21.1°F-6.1°C 64% 2.0 mph NW3.2 kmh NW 7.0 mph11.3 kmh 30.16 in1021.3 mb 0.00 in0.0 mm 0.00 in0.0 mm 0.02 in0.5 mm
08:10 AM 32.6°F0.3°C 21.6°F-5.8°C 64% 3.0 mph N4.8 kmh N 5.0 mph8.0 kmh 30.16 in1021.3 mb 0.00 in0.0 mm 0.00 in0.0 mm 0.02 in0.5 mm
08:15 AM 33.2°F0.7°C 22.2°F-5.4°C 64% 1.0 mph NW1.6 kmh NW 5.0 mph8.0 kmh 30.16 in1021.3 mb 0.00 in0.0 mm 0.00 in0.0 mm 0.02 in0.5 mm
08:20 AM 33.7°F0.9°C 22.3°F-5.4°C 63% 2.0 mph NW3.2 kmh NW 6.0 mph9.7 kmh 30.16 in1021.3 mb 0.00 in0.0 mm 0.00 in0.0 mm 0.02 in0.5 mm
08:25 AM 34.0°F1.1°C 22.6°F-5.2°C 63% 3.0 mph NW4.8 kmh NW 6.0 mph9.7 kmh 30.17 in1021.7 mb 0.00 in0.0 mm 0.00 in0.0 mm 0.02 in0.5 mm
08:30 AM 34.0°F1.1°C 22.2°F-5.4°C 62% 1.0 mph NW1.6 kmh NW 6.0 mph9.7 kmh 30.16 in1021.3 mb 0.00 in0.0 mm 0.00 in0.0 mm 0.02 in0.5 mm
08:35 AM 34.0°F1.1°C 21.8°F-5.7°C 61% 4.0 mph N6.4 kmh N 9.0 mph14.5 kmh 30.16 in1021.3 mb 0.00 in0.0 mm 0.00 in0.0 mm 0.02 in0.5 mm
08:40 AM 34.0°F1.1°C 22.2°F-5.4°C 62% 4.0 mph N6.4 kmh N 9.0 mph14.5 kmh 30.17 in1021.7 mb 0.00 in0.0 mm 0.00 in0.0 mm 0.02 in0.5 mm
08:45 AM 34.1°F1.2°C 22.3°F-5.4°C 62% 4.0 mph NW6.4 kmh NW 9.0 mph14.5 kmh 30.17 in1021.7 mb 0.00 in0.0 mm 0.00 in0.0 mm 0.02 in0.5 mm
08:50 AM 34.1°F1.2°C 22.3°F-5.4°C 62% 6.0 mph WNW9.7 kmh WNW 9.0 mph14.5 kmh 30.17 in1021.7 mb 0.00 in0.0 mm 0.00 in0.0 mm 0.02 in0.5 mm
08:55 AM 34.1°F1.2°C 22.3°F-5.4°C 62% 6.0 mph NNW9.7 kmh NNW 9.0 mph14.5 kmh 30.17 in1021.7 mb 0.00 in0.0 mm 0.00 in0.0 mm 0.02 in0.5 mm
09:00 AM 34.3°F1.3°C 22.4°F-5.3°C 62% 3.0 mph W4.8 kmh W 9.0 mph14.5 kmh 30.17 in1021.7 mb 0.00 in0.0 mm 0.00 in0.0 mm 0.02 in0.5 mm
09:05 AM 34.8°F1.6°C 22.5°F-5.3°C 61% 7.0 mph WNW11.3 kmh WNW 9.0 mph14.5 kmh 30.17 in1021.7 mb 0.00 in0.0 mm 0.00 in0.0 mm 0.02 in0.5 mm
09:10 AM 34.8°F1.6°C 22.5°F-5.3°C 61% 6.0 mph NW9.7 kmh NW 9.0 mph14.5 kmh 30.17 in1021.7 mb 0.00 in0.0 mm 0.00 in0.0 mm 0.02 in0.5 mm
09:15 AM 34.8°F1.6°C 22.5°F-5.3°C 61% 3.0 mph NNW4.8 kmh NNW 9.0 mph14.5 kmh 30.18 in1022.0 mb 0.00 in0.0 mm 0.00 in0.0 mm 0.02 in0.5 mm
09:20 AM 34.8°F1.6°C 22.9°F-5.1°C 62% 6.0 mph WNW9.7 kmh WNW 9.0 mph14.5 kmh 30.18 in1022.0 mb 0.00 in0.0 mm 0.00 in0.0 mm 0.02 in0.5 mm
09:25 AM 34.8°F1.6°C 23.3°F-4.8°C 63% 3.0 mph NNW4.8 kmh NNW 8.0 mph12.9 kmh 30.18 in1022.0 mb 0.00 in0.0 mm 0.00 in0.0 mm 0.02 in0.5 mm
09:30 AM 35.0°F1.7°C 23.1°F-4.9°C 62% 4.0 mph NW6.4 kmh NW 8.0 mph12.9 kmh 30.18 in1022.0 mb 0.00 in0.0 mm 0.00 in0.0 mm 0.02 in0.5 mm
09:35 AM 34.8°F1.6°C 23.3°F-4.8°C 63% 3.0 mph NW4.8 kmh NW 8.0 mph12.9 kmh 30.18 in1022.0 mb 0.00 in0.0 mm 0.00 in0.0 mm 0.02 in0.5 mm
09:40 AM 35.3°F1.8°C 23.8°F-4.6°C 63% 5.0 mph N8.0 kmh N 11.0 mph17.7 kmh 30.18 in1022.0 mb 0.00 in0.0 mm 0.00 in0.0 mm 0.02 in0.5 mm
09:45 AM 35.6°F2.0°C 23.7°F-4.6°C 62% 5.0 mph N8.0 kmh N 11.0 mph17.7 kmh 30.18 in1022.0 mb 0.00 in0.0 mm 0.00 in0.0 mm 0.02 in0.5 mm
09:50 AM 35.5°F1.9°C 22.8°F-5.1°C 60% 4.0 mph NW6.4 kmh NW 11.0 mph17.7 kmh 30.18 in1022.0 mb 0.00 in0.0 mm 0.00 in0.0 mm 0.02 in0.5 mm
09:55 AM 35.4°F1.9°C 23.9°F-4.5°C 63% 2.0 mph NNW3.2 kmh NNW 11.0 mph17.7 kmh 30.18 in1022.0 mb 0.00 in0.0 mm 0.00 in0.0 mm 0.02 in0.5 mm
10:00 AM 36.2°F2.3°C 24.6°F-4.1°C 63% 7.0 mph NW11.3 kmh NW 11.0 mph17.7 kmh 30.18 in1022.0 mb 0.00 in0.0 mm 0.00 in0.0 mm 0.02 in0.5 mm
10:05 AM 35.6°F2.0°C 22.9°F-5.1°C 60% 6.0 mph NW9.7 kmh NW 14.0 mph22.5 kmh 30.18 in1022.0 mb 0.00 in0.0 mm 0.00 in0.0 mm 0.02 in0.5 mm
10:10 AM 35.3°F1.8°C 23.0°F-5.0°C 61% 4.0 mph WNW6.4 kmh WNW 14.0 mph22.5 kmh 30.18 in1022.0 mb 0.00 in0.0 mm 0.00 in0.0 mm 0.02 in0.5 mm
10:15 AM 35.6°F2.0°C 22.0°F-5.6°C 58% 5.0 mph NNW8.0 kmh NNW 14.0 mph22.5 kmh 30.19 in1022.4 mb 0.00 in0.0 mm 0.00 in0.0 mm 0.02 in0.5 mm
10:20 AM 36.5°F2.5°C 23.7°F-4.6°C 60% 8.0 mph WNW12.9 kmh WNW 14.0 mph22.5 kmh 30.19 in1022.4 mb 0.00 in0.0 mm 0.00 in0.0 mm 0.02 in0.5 mm
10:25 AM 37.2°F2.9°C 23.1°F-4.9°C 57% 4.0 mph NW6.4 kmh NW 10.0 mph16.1 kmh 30.19 in1022.4 mb 0.00 in0.0 mm 0.00 in0.0 mm 0.02 in0.5 mm
10:30 AM 36.5°F2.5°C 20.7°F-6.3°C 53% 5.0 mph WNW8.0 kmh WNW 10.0 mph16.1 kmh 30.19 in1022.4 mb 0.00 in0.0 mm 0.00 in0.0 mm 0.02 in0.5 mm
10:35 AM 36.9°F2.7°C 22.8°F-5.1°C 57% 9.0 mph WNW14.5 kmh WNW 11.0 mph17.7 kmh 30.19 in1022.4 mb 0.00 in0.0 mm 0.00 in0.0 mm 0.02 in0.5 mm
10:40 AM 37.6°F3.1°C 23.5°F-4.7°C 57% 2.0 mph NNW3.2 kmh NNW 12.0 mph19.3 kmh 30.19 in1022.4 mb 0.00 in0.0 mm 0.00 in0.0 mm 0.02 in0.5 mm
10:45 AM 37.9°F3.3°C 24.2°F-4.3°C 58% 6.0 mph N9.7 kmh N 12.0 mph19.3 kmh 30.19 in1022.4 mb 0.00 in0.0 mm 0.00 in0.0 mm 0.02 in0.5 mm
10:50 AM 37.5°F3.1°C 22.5°F-5.3°C 55% 6.0 mph W9.7 kmh W 12.0 mph19.3 kmh 30.20 in1022.7 mb 0.00 in0.0 mm 0.00 in0.0 mm 0.02 in0.5 mm
10:55 AM 36.5°F2.5°C 22.4°F-5.3°C 57% 6.0 mph WNW9.7 kmh WNW 12.0 mph19.3 kmh 30.20 in1022.7 mb 0.00 in0.0 mm 0.00 in0.0 mm 0.02 in0.5 mm
11:00 AM 37.1°F2.8°C 23.0°F-5.0°C 57% 3.0 mph WNW4.8 kmh WNW 12.0 mph19.3 kmh 30.20 in1022.7 mb 0.00 in0.0 mm 0.00 in0.0 mm 0.02 in0.5 mm
11:05 AM 36.6°F2.6°C 22.5°F-5.3°C 57% 4.0 mph 6.4 kmh 12.0 mph19.3 kmh 30.20 in1022.7 mb 0.00 in0.0 mm 0.00 in0.0 mm 0.02 in0.5 mm
11:10 AM 36.5°F2.5°C 22.9°F-5.1°C 58% 4.0 mph NW6.4 kmh NW 11.0 mph17.7 kmh 30.20 in1022.7 mb 0.00 in0.0 mm 0.00 in0.0 mm 0.02 in0.5 mm
11:15 AM 36.8°F2.7°C 24.0°F-4.4°C 60% 6.0 mph WNW9.7 kmh WNW 11.0 mph17.7 kmh 30.20 in1022.7 mb 0.00 in0.0 mm 0.00 in0.0 mm 0.02 in0.5 mm
11:20 AM 36.7°F2.6°C 22.6°F-5.2°C 57% 4.0 mph W6.4 kmh W 10.0 mph16.1 kmh 30.20 in1022.7 mb 0.00 in0.0 mm 0.00 in0.0 mm 0.02 in0.5 mm
11:25 AM 37.3°F2.9°C 24.5°F-4.2°C 60% 6.0 mph NW9.7 kmh NW 11.0 mph17.7 kmh 30.20 in1022.7 mb 0.00 in0.0 mm 0.00 in0.0 mm 0.02 in0.5 mm
11:30 AM 38.0°F3.3°C 23.8°F-4.6°C 57% 9.0 mph WNW14.5 kmh WNW 13.0 mph20.9 kmh 30.20 in1022.7 mb 0.00 in0.0 mm 0.00 in0.0 mm 0.02 in0.5 mm
11:35 AM 38.3°F3.5°C 24.1°F-4.4°C 57% 5.0 mph NW8.0 kmh NW 13.0 mph20.9 kmh 30.20 in1022.7 mb 0.00 in0.0 mm 0.00 in0.0 mm 0.02 in0.5 mm
11:40 AM 37.4°F3.0°C 23.7°F-4.6°C 58% 4.0 mph NW6.4 kmh NW 13.0 mph20.9 kmh 30.20 in1022.7 mb 0.00 in0.0 mm 0.00 in0.0 mm 0.02 in0.5 mm
11:45 AM 38.7°F3.7°C 25.8°F-3.4°C 60% 6.0 mph W9.7 kmh W 13.0 mph20.9 kmh 30.20 in1022.7 mb 0.00 in0.0 mm 0.00 in0.0 mm 0.02 in0.5 mm
11:50 AM 37.4°F3.0°C 22.4°F-5.3°C 55% 8.0 mph W12.9 kmh W 12.0 mph19.3 kmh 30.20 in1022.7 mb 0.00 in0.0 mm 0.00 in0.0 mm 0.02 in0.5 mm
11:55 AM 37.7°F3.2°C 24.4°F-4.2°C 59% 8.0 mph NW12.9 kmh NW 12.0 mph19.3 kmh 30.20 in1022.7 mb 0.00 in0.0 mm 0.00 in0.0 mm 0.02 in0.5 mm
12:00 PM 37.8°F3.2°C 24.1°F-4.4°C 58% 6.0 mph WNW9.7 kmh WNW 12.0 mph19.3 kmh 30.20 in1022.7 mb 0.00 in0.0 mm 0.00 in0.0 mm 0.02 in0.5 mm
12:20 PM 38.8°F3.8°C 27.1°F-2.7°C 63% 8.0 mph WNW12.9 kmh WNW 8.0 mph12.9 kmh 30.20 in1022.7 mb 0.00 in0.0 mm 0.00 in0.0 mm 0.02 in0.5 mm
12:25 PM 38.1°F3.4°C 24.8°F-4.0°C 59% 1.0 mph NW1.6 kmh NW 8.0 mph12.9 kmh 30.19 in1022.4 mb 0.00 in0.0 mm 0.00 in0.0 mm 0.02 in0.5 mm
12:30 PM 38.6°F3.7°C 26.5°F-3.1°C 62% 3.0 mph NW4.8 kmh NW 8.0 mph12.9 kmh 30.19 in1022.4 mb 0.00 in0.0 mm 0.00 in0.0 mm 0.02 in0.5 mm
12:35 PM 38.3°F3.5°C 25.8°F-3.4°C 61% 1.0 mph NW1.6 kmh NW 9.0 mph14.5 kmh 30.19 in1022.4 mb 0.00 in0.0 mm 0.00 in0.0 mm 0.02 in0.5 mm
12:40 PM 37.7°F3.2°C 25.2°F-3.8°C 61% 6.0 mph NW9.7 kmh NW 12.0 mph19.3 kmh 30.19 in1022.4 mb 0.00 in0.0 mm 0.00 in0.0 mm 0.02 in0.5 mm
12:45 PM 37.7°F3.2°C 25.6°F-3.6°C 62% 4.0 mph N6.4 kmh N 13.0 mph20.9 kmh 30.18 in1022.0 mb 0.00 in0.0 mm 0.00 in0.0 mm 0.02 in0.5 mm
12:50 PM 38.9°F3.8°C 26.4°F-3.1°C 61% 5.0 mph NW8.0 kmh NW 13.0 mph20.9 kmh 30.19 in1022.4 mb 0.00 in0.0 mm 0.00 in0.0 mm 0.02 in0.5 mm
12:55 PM 38.8°F3.8°C 25.9°F-3.4°C 60% 5.0 mph WSW8.0 kmh WSW 13.0 mph20.9 kmh 30.19 in1022.4 mb 0.00 in0.0 mm 0.00 in0.0 mm 0.02 in0.5 mm
01:00 PM 39.1°F3.9°C 27.0°F-2.8°C 62% 3.0 mph SW4.8 kmh SW 13.0 mph20.9 kmh 30.19 in1022.4 mb 0.00 in0.0 mm 0.00 in0.0 mm 0.02 in0.5 mm
01:05 PM 40.1°F4.5°C 27.9°F-2.3°C 62% 6.0 mph N9.7 kmh N 8.0 mph12.9 kmh 30.18 in1022.0 mb 0.00 in0.0 mm 0.00 in0.0 mm 0.02 in0.5 mm
01:10 PM 39.8°F4.3°C 27.2°F-2.7°C 61% 5.0 mph WNW8.0 kmh WNW 11.0 mph17.7 kmh 30.18 in1022.0 mb 0.00 in0.0 mm 0.00 in0.0 mm 0.02 in0.5 mm
01:15 PM 39.1°F3.9°C 27.0°F-2.8°C 62% 4.0 mph N6.4 kmh N 11.0 mph17.7 kmh 30.18 in1022.0 mb 0.00 in0.0 mm 0.00 in0.0 mm 0.02 in0.5 mm
01:20 PM 39.3°F4.1°C 26.3°F-3.2°C 60% 3.0 mph NNW4.8 kmh NNW 11.0 mph17.7 kmh 30.18 in1022.0 mb 0.00 in0.0 mm 0.00 in0.0 mm 0.02 in0.5 mm
01:25 PM 38.6°F3.7°C 24.8°F-4.0°C 58% 6.0 mph NNW9.7 kmh NNW 11.0 mph17.7 kmh 30.18 in1022.0 mb 0.00 in0.0 mm 0.00 in0.0 mm 0.02 in0.5 mm
01:30 PM 38.7°F3.7°C 25.4°F-3.7°C 59% 8.0 mph NNW12.9 kmh NNW 11.0 mph17.7 kmh 30.18 in1022.0 mb 0.00 in0.0 mm 0.00 in0.0 mm 0.02 in0.5 mm
01:35 PM 39.6°F4.2°C 26.6°F-3.0°C 60% 6.0 mph SW9.7 kmh SW 11.0 mph17.7 kmh 30.18 in1022.0 mb 0.00 in0.0 mm 0.00 in0.0 mm 0.02 in0.5 mm
01:40 PM 38.9°F3.8°C 26.0°F-3.3°C 60% 7.0 mph NW11.3 kmh NW 11.0 mph17.7 kmh 30.18 in1022.0 mb 0.00 in0.0 mm 0.00 in0.0 mm 0.02 in0.5 mm
01:45 PM 39.5°F4.2°C 26.9°F-2.8°C 61% 6.0 mph NW9.7 kmh NW 11.0 mph17.7 kmh 30.18 in1022.0 mb 0.00 in0.0 mm 0.00 in0.0 mm 0.02 in0.5 mm
01:50 PM 38.4°F3.6°C 25.1°F-3.8°C 59% 6.0 mph W9.7 kmh W 14.0 mph22.5 kmh 30.18 in1022.0 mb 0.00 in0.0 mm 0.00 in0.0 mm 0.02 in0.5 mm
01:55 PM 38.3°F3.5°C 25.4°F-3.7°C 60% 4.0 mph NW6.4 kmh NW 14.0 mph22.5 kmh 30.18 in1022.0 mb 0.00 in0.0 mm 0.00 in0.0 mm 0.02 in0.5 mm
02:00 PM 38.7°F3.7°C 25.8°F-3.4°C 60% 3.0 mph NW4.8 kmh NW 14.0 mph22.5 kmh 30.19 in1022.4 mb 0.00 in0.0 mm 0.00 in0.0 mm 0.02 in0.5 mm
02:05 PM 38.2°F3.4°C 25.3°F-3.7°C 60% 8.0 mph W12.9 kmh W 14.0 mph22.5 kmh 30.19 in1022.4 mb 0.00 in0.0 mm 0.00 in0.0 mm 0.02 in0.5 mm
02:10 PM 38.7°F3.7°C 26.6°F-3.0°C 62% 9.0 mph W14.5 kmh W 10.0 mph16.1 kmh 30.19 in1022.4 mb 0.00 in0.0 mm 0.00 in0.0 mm 0.02 in0.5 mm
02:15 PM 39.3°F4.1°C 27.2°F-2.7°C 62% 5.0 mph W8.0 kmh W 11.0 mph17.7 kmh 30.19 in1022.4 mb 0.00 in0.0 mm 0.00 in0.0 mm 0.02 in0.5 mm
02:20 PM 39.5°F4.2°C 26.5°F-3.1°C 60% 4.0 mph NW6.4 kmh NW 11.0 mph17.7 kmh 30.19 in1022.4 mb 0.00 in0.0 mm 0.00 in0.0 mm 0.02 in0.5 mm
02:25 PM 38.6°F3.7°C 25.3°F-3.7°C 59% 6.0 mph WNW9.7 kmh WNW 11.0 mph17.7 kmh 30.18 in1022.0 mb 0.00 in0.0 mm 0.00 in0.0 mm 0.02 in0.5 mm
02:30 PM 39.1°F3.9°C 26.1°F-3.3°C 60% 1.0 mph NW1.6 kmh NW 11.0 mph17.7 kmh 30.19 in1022.4 mb 0.00 in0.0 mm 0.00 in0.0 mm 0.02 in0.5 mm
02:35 PM 38.9°F3.8°C 26.0°F-3.3°C 60% 4.0 mph WNW6.4 kmh WNW 11.0 mph17.7 kmh 30.19 in1022.4 mb 0.00 in0.0 mm 0.00 in0.0 mm 0.02 in0.5 mm
02:40 PM 38.5°F3.6°C 25.2°F-3.8°C 59% 4.0 mph W6.4 kmh W 11.0 mph17.7 kmh 30.18 in1022.0 mb 0.00 in0.0 mm 0.00 in0.0 mm 0.02 in0.5 mm
02:45 PM 38.3°F3.5°C 25.0°F-3.9°C 59% 4.0 mph WNW6.4 kmh WNW 8.0 mph12.9 kmh 30.18 in1022.0 mb 0.00 in0.0 mm 0.00 in0.0 mm 0.02 in0.5 mm
02:50 PM 38.3°F3.5°C 25.4°F-3.7°C 60% 3.0 mph NW4.8 kmh NW 8.0 mph12.9 kmh 30.18 in1022.0 mb 0.00 in0.0 mm 0.00 in0.0 mm 0.02 in0.5 mm
02:55 PM 38.1°F3.4°C 24.8°F-4.0°C 59% 3.0 mph NW4.8 kmh NW 11.0 mph17.7 kmh 30.18 in1022.0 mb 0.00 in0.0 mm 0.00 in0.0 mm 0.02 in0.5 mm
03:00 PM 38.8°F3.8°C 26.3°F-3.2°C 61% 6.0 mph WNW9.7 kmh WNW 11.0 mph17.7 kmh 30.18 in1022.0 mb 0.00 in0.0 mm 0.00 in0.0 mm 0.02 in0.5 mm
03:05 PM 38.3°F3.5°C 26.2°F-3.2°C 62% 6.0 mph W9.7 kmh W 11.0 mph17.7 kmh 30.18 in1022.0 mb 0.00 in0.0 mm 0.00 in0.0 mm 0.02 in0.5 mm
03:10 PM 38.0°F3.3°C 25.5°F-3.6°C 61% 3.0 mph NW4.8 kmh NW 11.0 mph17.7 kmh 30.18 in1022.0 mb 0.00 in0.0 mm 0.00 in0.0 mm 0.02 in0.5 mm
03:15 PM 38.6°F3.7°C 25.7°F-3.5°C 60% 4.0 mph N6.4 kmh N 10.0 mph16.1 kmh 30.18 in1022.0 mb 0.00 in0.0 mm 0.00 in0.0 mm 0.02 in0.5 mm
03:20 PM 38.1°F3.4°C 24.8°F-4.0°C 59% 5.0 mph NNW8.0 kmh NNW 10.0 mph16.1 kmh 30.18 in1022.0 mb 0.00 in0.0 mm 0.00 in0.0 mm 0.02 in0.5 mm
03:25 PM 38.2°F3.4°C 25.3°F-3.7°C 60% 4.0 mph NW6.4 kmh NW 9.0 mph14.5 kmh 30.18 in1022.0 mb 0.00 in0.0 mm 0.00 in0.0 mm 0.02 in0.5 mm
03:30 PM 37.7°F3.2°C 25.2°F-3.8°C 61% 3.0 mph NW4.8 kmh NW 9.0 mph14.5 kmh 30.18 in1022.0 mb 0.00 in0.0 mm 0.00 in0.0 mm 0.02 in0.5 mm
03:35 PM 37.6°F3.1°C 25.2°F-3.8°C 61% 1.0 mph NNW1.6 kmh NNW 8.0 mph12.9 kmh 30.17 in1021.7 mb 0.00 in0.0 mm 0.00 in0.0 mm 0.02 in0.5 mm
03:40 PM 37.8°F3.2°C 25.3°F-3.7°C 61% 3.0 mph NW4.8 kmh NW 8.0 mph12.9 kmh 30.17 in1021.7 mb 0.00 in0.0 mm 0.00 in0.0 mm 0.02 in0.5 mm
03:45 PM 37.6°F3.1°C 24.7°F-4.1°C 60% 5.0 mph WNW8.0 kmh WNW 8.0 mph12.9 kmh 30.17 in1021.7 mb 0.00 in0.0 mm 0.00 in0.0 mm 0.02 in0.5 mm
03:50 PM 37.3°F2.9°C 24.5°F-4.2°C 60% 5.0 mph N8.0 kmh N 8.0 mph12.9 kmh 30.17 in1021.7 mb 0.00 in0.0 mm 0.00 in0.0 mm 0.02 in0.5 mm
03:55 PM 37.6°F3.1°C 24.3°F-4.3°C 59% 4.0 mph NW6.4 kmh NW 8.0 mph12.9 kmh 30.17 in1021.7 mb 0.00 in0.0 mm 0.00 in0.0 mm 0.02 in0.5 mm
04:00 PM 37.1°F2.8°C 23.9°F-4.5°C 59% 7.0 mph N11.3 kmh N 8.0 mph12.9 kmh 30.17 in1021.7 mb 0.00 in0.0 mm 0.00 in0.0 mm 0.02 in0.5 mm
04:05 PM 37.2°F2.9°C 24.0°F-4.4°C 59% 2.0 mph NE3.2 kmh NE 8.0 mph12.9 kmh 30.17 in1021.7 mb 0.00 in0.0 mm 0.00 in0.0 mm 0.02 in0.5 mm
04:10 PM 37.3°F2.9°C 24.5°F-4.2°C 60% 4.0 mph NNW6.4 kmh NNW 8.0 mph12.9 kmh 30.17 in1021.7 mb 0.00 in0.0 mm 0.00 in0.0 mm 0.02 in0.5 mm
04:15 PM 37.2°F2.9°C 23.5°F-4.7°C 58% 4.0 mph NW6.4 kmh NW 8.0 mph12.9 kmh 30.17 in1021.7 mb 0.00 in0.0 mm 0.00 in0.0 mm 0.02 in0.5 mm
04:20 PM 37.1°F2.8°C 24.3°F-4.3°C 60% 4.0 mph WNW6.4 kmh WNW 8.0 mph12.9 kmh 30.17 in1021.7 mb 0.00 in0.0 mm 0.00 in0.0 mm 0.02 in0.5 mm
04:25 PM 37.2°F2.9°C 24.0°F-4.4°C 59% 3.0 mph 4.8 kmh 9.0 mph14.5 kmh 30.17 in1021.7 mb 0.00 in0.0 mm 0.00 in0.0 mm 0.02 in0.5 mm
04:30 PM 37.2°F2.9°C 24.0°F-4.4°C 59% 3.0 mph NW4.8 kmh NW 9.0 mph14.5 kmh 30.17 in1021.7 mb 0.00 in0.0 mm 0.00 in0.0 mm 0.02 in0.5 mm
04:35 PM 37.5°F3.1°C 24.6°F-4.1°C 60% 1.0 mph N1.6 kmh N 9.0 mph14.5 kmh 30.17 in1021.7 mb 0.00 in0.0 mm 0.00 in0.0 mm 0.02 in0.5 mm
04:40 PM 37.1°F2.8°C 23.9°F-4.5°C 59% 2.0 mph NW3.2 kmh NW 9.0 mph14.5 kmh 30.16 in1021.3 mb 0.00 in0.0 mm 0.00 in0.0 mm 0.02 in0.5 mm
04:45 PM 37.1°F2.8°C 24.7°F-4.1°C 61% 2.0 mph NNW3.2 kmh NNW 6.0 mph9.7 kmh 30.16 in1021.3 mb 0.00 in0.0 mm 0.00 in0.0 mm 0.02 in0.5 mm
04:50 PM 37.3°F2.9°C 24.0°F-4.4°C 59% 2.0 mph N3.2 kmh N 6.0 mph9.7 kmh 30.16 in1021.3 mb 0.00 in0.0 mm 0.00 in0.0 mm 0.02 in0.5 mm
04:55 PM 37.2°F2.9°C 24.0°F-4.4°C 59% Calm Calm 6.0 mph9.7 kmh 30.16 in1021.3 mb 0.00 in0.0 mm 0.00 in0.0 mm 0.02 in0.5 mm
05:00 PM 36.9°F2.7°C 23.7°F-4.6°C 59% 1.0 mph NNW1.6 kmh NNW 6.0 mph9.7 kmh 30.16 in1021.3 mb 0.00 in0.0 mm 0.00 in0.0 mm 0.02 in0.5 mm
05:05 PM 36.9°F2.7°C 24.1°F-4.4°C 60% Calm Calm 5.0 mph8.0 kmh 30.16 in1021.3 mb 0.00 in0.0 mm 0.00 in0.0 mm 0.02 in0.5 mm
05:10 PM 37.1°F2.8°C 23.9°F-4.5°C 59% Calm Calm -- 30.16 in1021.3 mb 0.00 in0.0 mm 0.00 in0.0 mm 0.02 in0.5 mm
05:15 PM 36.6°F2.6°C 23.4°F-4.8°C 59% Calm Calm -- 30.16 in1021.3 mb 0.00 in0.0 mm 0.00 in0.0 mm 0.02 in0.5 mm
05:20 PM 36.8°F2.7°C 23.6°F-4.7°C 59% Calm Calm -- 30.16 in1021.3 mb 0.00 in0.0 mm 0.00 in0.0 mm 0.02 in0.5 mm
05:25 PM 36.8°F2.7°C 23.6°F-4.7°C 59% Calm Calm -- 30.16 in1021.3 mb 0.00 in0.0 mm 0.00 in0.0 mm 0.02 in0.5 mm
05:30 PM 36.8°F2.7°C 23.6°F-4.7°C 59% Calm Calm -- 30.16 in1021.3 mb 0.00 in0.0 mm 0.00 in0.0 mm 0.02 in0.5 mm
05:35 PM 36.7°F2.6°C 23.5°F-4.7°C 59% Calm Calm -- 30.16 in1021.3 mb 0.00 in0.0 mm 0.00 in0.0 mm 0.02 in0.5 mm
05:40 PM 36.7°F2.6°C 23.5°F-4.7°C 59% Calm Calm -- 30.15 in1021.0 mb 0.00 in0.0 mm 0.00 in0.0 mm 0.02 in0.5 mm
05:45 PM 36.7°F2.6°C 23.9°F-4.5°C 60% Calm Calm -- 30.15 in1021.0 mb 0.00 in0.0 mm 0.00 in0.0 mm 0.02 in0.5 mm
05:50 PM 36.9°F2.7°C 23.7°F-4.6°C 59% Calm Calm -- 30.15 in1021.0 mb 0.00 in0.0 mm 0.00 in0.0 mm 0.02 in0.5 mm
05:55 PM 36.7°F2.6°C 23.5°F-4.7°C 59% Calm Calm -- 30.15 in1021.0 mb 0.00 in0.0 mm 0.00 in0.0 mm 0.02 in0.5 mm
06:00 PM 36.7°F2.6°C 23.5°F-4.7°C 59% Calm Calm -- 30.15 in1021.0 mb 0.00 in0.0 mm 0.00 in0.0 mm 0.02 in0.5 mm
06:05 PM 36.3°F2.4°C 22.7°F-5.2°C 58% Calm Calm -- 30.15 in1021.0 mb 0.00 in0.0 mm 0.00 in0.0 mm 0.02 in0.5 mm
06:10 PM 36.3°F2.4°C 22.7°F-5.2°C 58% Calm Calm -- 30.14 in1020.7 mb 0.00 in0.0 mm 0.00 in0.0 mm 0.02 in0.5 mm
06:15 PM 36.5°F2.5°C 23.3°F-4.8°C 59% Calm Calm -- 30.14 in1020.7 mb 0.00 in0.0 mm 0.00 in0.0 mm 0.02 in0.5 mm
06:20 PM 36.7°F2.6°C 23.9°F-4.5°C 60% Calm Calm -- 30.14 in1020.7 mb 0.00 in0.0 mm 0.00 in0.0 mm 0.02 in0.5 mm
06:25 PM 36.7°F2.6°C 23.5°F-4.7°C 59% Calm Calm -- 30.14 in1020.7 mb 0.00 in0.0 mm 0.00 in0.0 mm 0.02 in0.5 mm
06:30 PM 36.8°F2.7°C 23.6°F-4.7°C 59% Calm Calm -- 30.14 in1020.7 mb 0.00 in0.0 mm 0.00 in0.0 mm 0.02 in0.5 mm
06:35 PM 36.7°F2.6°C 23.5°F-4.7°C 59% Calm Calm -- 30.13 in1020.3 mb 0.00 in0.0 mm 0.00 in0.0 mm 0.02 in0.5 mm
06:40 PM 36.6°F2.6°C 23.4°F-4.8°C 59% Calm Calm -- 30.13 in1020.3 mb 0.00 in0.0 mm 0.00 in0.0 mm 0.02 in0.5 mm
06:45 PM 36.6°F2.6°C 23.4°F-4.8°C 59% Calm Calm -- 30.13 in1020.3 mb 0.00 in0.0 mm 0.00 in0.0 mm 0.02 in0.5 mm
06:50 PM 36.7°F2.6°C 23.5°F-4.7°C 59% Calm Calm -- 30.13 in1020.3 mb 0.00 in0.0 mm 0.00 in0.0 mm 0.02 in0.5 mm
06:55 PM 36.8°F2.7°C 24.0°F-4.4°C 60% Calm Calm -- 30.12 in1020.0 mb 0.00 in0.0 mm 0.00 in0.0 mm 0.02 in0.5 mm
07:00 PM 36.8°F2.7°C 24.0°F-4.4°C 60% Calm Calm -- 30.12 in1020.0 mb 0.00 in0.0 mm 0.00 in0.0 mm 0.02 in0.5 mm
07:05 PM 36.7°F2.6°C 23.1°F-4.9°C 58% Calm Calm -- 30.12 in1020.0 mb 0.00 in0.0 mm 0.00 in0.0 mm 0.02 in0.5 mm
07:10 PM 36.6°F2.6°C 23.4°F-4.8°C 59% Calm Calm -- 30.12 in1020.0 mb 0.00 in0.0 mm 0.00 in0.0 mm 0.02 in0.5 mm
07:15 PM 36.6°F2.6°C 23.4°F-4.8°C 59% Calm Calm -- 30.12 in1020.0 mb 0.00 in0.0 mm 0.00 in0.0 mm 0.02 in0.5 mm
07:20 PM 36.7°F2.6°C 23.5°F-4.7°C 59% Calm Calm -- 30.12 in1020.0 mb 0.00 in0.0 mm 0.00 in0.0 mm 0.02 in0.5 mm
07:25 PM 36.7°F2.6°C 23.9°F-4.5°C 60% Calm Calm -- 30.11 in1019.6 mb 0.00 in0.0 mm 0.00 in0.0 mm 0.02 in0.5 mm
07:30 PM 36.8°F2.7°C 24.0°F-4.4°C 60% Calm Calm 1.0 mph1.6 kmh 30.11 in1019.6 mb 0.00 in0.0 mm 0.00 in0.0 mm 0.02 in0.5 mm
07:35 PM 36.7°F2.6°C 23.9°F-4.5°C 60% Calm Calm 3.0 mph4.8 kmh 30.10 in1019.3 mb 0.00 in0.0 mm 0.00 in0.0 mm 0.02 in0.5 mm
07:40 PM 36.7°F2.6°C 24.3°F-4.3°C 61% Calm Calm 3.0 mph4.8 kmh 30.10 in1019.3 mb 0.00 in0.0 mm 0.00 in0.0 mm 0.02 in0.5 mm
07:45 PM 36.5°F2.5°C 24.1°F-4.4°C 61% Calm Calm -- 30.11 in1019.6 mb 0.00 in0.0 mm 0.00 in0.0 mm 0.02 in0.5 mm
07:50 PM 36.5°F2.5°C 24.1°F-4.4°C 61% Calm Calm -- 30.11 in1019.6 mb 0.00 in0.0 mm 0.00 in0.0 mm 0.02 in0.5 mm
07:55 PM 36.4°F2.4°C 24.0°F-4.4°C 61% Calm Calm -- 30.11 in1019.6 mb 0.00 in0.0 mm 0.00 in0.0 mm 0.02 in0.5 mm
08:00 PM 36.4°F2.4°C 24.0°F-4.4°C 61% Calm Calm 1.0 mph1.6 kmh 30.11 in1019.6 mb 0.00 in0.0 mm 0.00 in0.0 mm 0.02 in0.5 mm
08:05 PM 36.3°F2.4°C 24.3°F-4.3°C 62% 2.0 mph E3.2 kmh E 2.0 mph3.2 kmh 30.11 in1019.6 mb 0.00 in0.0 mm 0.00 in0.0 mm 0.02 in0.5 mm
08:10 PM 36.2°F2.3°C 24.2°F-4.3°C 62% Calm Calm -- 30.11 in1019.6 mb 0.00 in0.0 mm 0.00 in0.0 mm 0.02 in0.5 mm
08:15 PM 36.2°F2.3°C 24.2°F-4.3°C 62% Calm Calm -- 30.11 in1019.6 mb 0.00 in0.0 mm 0.00 in0.0 mm 0.02 in0.5 mm
08:20 PM 36.1°F2.3°C 24.1°F-4.4°C 62% Calm Calm -- 30.11 in1019.6 mb 0.00 in0.0 mm 0.00 in0.0 mm 0.02 in0.5 mm
08:25 PM 36.1°F2.3°C 24.1°F-4.4°C 62% Calm Calm -- 30.11 in1019.6 mb 0.00 in0.0 mm 0.00 in0.0 mm 0.02 in0.5 mm
08:30 PM 36.1°F2.3°C 24.1°F-4.4°C 62% Calm Calm -- 30.11 in1019.6 mb 0.00 in0.0 mm 0.00 in0.0 mm 0.02 in0.5 mm
08:35 PM 36.1°F2.3°C 24.1°F-4.4°C 62% Calm Calm 1.0 mph1.6 kmh 30.11 in1019.6 mb 0.00 in0.0 mm 0.00 in0.0 mm 0.02 in0.5 mm
08:40 PM 36.0°F2.2°C 24.0°F-4.4°C 62% Calm Calm -- 30.12 in1020.0 mb 0.00 in0.0 mm 0.00 in0.0 mm 0.02 in0.5 mm
08:45 PM 36.1°F2.3°C 24.5°F-4.2°C 63% Calm Calm 1.0 mph1.6 kmh 30.12 in1020.0 mb 0.00 in0.0 mm 0.00 in0.0 mm 0.02 in0.5 mm
08:50 PM 36.0°F2.2°C 24.4°F-4.2°C 63% Calm Calm 2.0 mph3.2 kmh 30.11 in1019.6 mb 0.00 in0.0 mm 0.00 in0.0 mm 0.02 in0.5 mm
08:55 PM 36.0°F2.2°C 24.4°F-4.2°C 63% Calm Calm -- 30.11 in1019.6 mb 0.00 in0.0 mm 0.00 in0.0 mm 0.02 in0.5 mm
09:00 PM 36.0°F2.2°C 24.8°F-4.0°C 64% Calm Calm -- 30.11 in1019.6 mb 0.00 in0.0 mm 0.00 in0.0 mm 0.02 in0.5 mm
09:05 PM 36.0°F2.2°C 24.8°F-4.0°C 64% Calm Calm -- 30.11 in1019.6 mb 0.00 in0.0 mm 0.00 in0.0 mm 0.02 in0.5 mm
09:10 PM 36.0°F2.2°C 24.8°F-4.0°C 64% Calm Calm -- 30.11 in1019.6 mb 0.00 in0.0 mm 0.00 in0.0 mm 0.02 in0.5 mm
09:15 PM 36.0°F2.2°C 24.8°F-4.0°C 64% Calm Calm 2.0 mph3.2 kmh 30.11 in1019.6 mb 0.00 in0.0 mm 0.00 in0.0 mm 0.02 in0.5 mm
09:20 PM 36.0°F2.2°C 24.8°F-4.0°C 64% 3.0 mph SE4.8 kmh SE 4.0 mph6.4 kmh 30.11 in1019.6 mb 0.00 in0.0 mm 0.00 in0.0 mm 0.02 in0.5 mm
09:25 PM 36.0°F2.2°C 24.8°F-4.0°C 64% 2.0 mph SSE3.2 kmh SSE 4.0 mph6.4 kmh 30.12 in1020.0 mb 0.00 in0.0 mm 0.00 in0.0 mm 0.02 in0.5 mm
09:30 PM 36.0°F2.2°C 25.2°F-3.8°C 65% 2.0 mph SSE3.2 kmh SSE 4.0 mph6.4 kmh 30.11 in1019.6 mb 0.00 in0.0 mm 0.00 in0.0 mm 0.02 in0.5 mm
09:35 PM 36.0°F2.2°C 25.2°F-3.8°C 65% 3.0 mph SE4.8 kmh SE 4.0 mph6.4 kmh 30.11 in1019.6 mb 0.00 in0.0 mm 0.00 in0.0 mm 0.02 in0.5 mm
09:40 PM 36.0°F2.2°C 25.2°F-3.8°C 65% 2.0 mph S3.2 kmh S 4.0 mph6.4 kmh 30.11 in1019.6 mb 0.00 in0.0 mm 0.00 in0.0 mm 0.02 in0.5 mm
09:45 PM 36.0°F2.2°C 25.2°F-3.8°C 65% 4.0 mph SSW6.4 kmh SSW 6.0 mph9.7 kmh 30.11 in1019.6 mb 0.00 in0.0 mm 0.00 in0.0 mm 0.02 in0.5 mm
09:50 PM 36.1°F2.3°C 25.3°F-3.7°C 65% 2.0 mph SSE3.2 kmh SSE 6.0 mph9.7 kmh 30.11 in1019.6 mb 0.00 in0.0 mm 0.00 in0.0 mm 0.02 in0.5 mm
09:55 PM 36.1°F2.3°C 25.7°F-3.5°C 66% Calm Calm 6.0 mph9.7 kmh 30.11 in1019.6 mb 0.00 in0.0 mm 0.00 in0.0 mm 0.02 in0.5 mm
10:00 PM 36.2°F2.3°C 25.8°F-3.4°C 66% 3.0 mph S4.8 kmh S 6.0 mph9.7 kmh 30.11 in1019.6 mb 0.00 in0.0 mm 0.00 in0.0 mm 0.02 in0.5 mm
10:05 PM 36.2°F2.3°C 25.8°F-3.4°C 66% Calm Calm 4.0 mph6.4 kmh 30.10 in1019.3 mb 0.00 in0.0 mm 0.00 in0.0 mm 0.02 in0.5 mm
10:10 PM 36.2°F2.3°C 25.8°F-3.4°C 66% 4.0 mph S6.4 kmh S 7.0 mph11.3 kmh 30.11 in1019.6 mb 0.00 in0.0 mm 0.00 in0.0 mm 0.02 in0.5 mm
10:15 PM 36.3°F2.4°C 25.9°F-3.4°C 66% 5.0 mph SW8.0 kmh SW 7.0 mph11.3 kmh 30.11 in1019.6 mb 0.00 in0.0 mm 0.00 in0.0 mm 0.02 in0.5 mm
10:20 PM 36.4°F2.4°C 26.0°F-3.3°C 66% 7.0 mph SSW11.3 kmh SSW 12.0 mph19.3 kmh 30.11 in1019.6 mb 0.00 in0.0 mm 0.00 in0.0 mm 0.02 in0.5 mm
10:25 PM 36.5°F2.5°C 26.4°F-3.1°C 67% 8.0 mph S12.9 kmh S 12.0 mph19.3 kmh 30.11 in1019.6 mb 0.00 in0.0 mm 0.00 in0.0 mm 0.02 in0.5 mm
10:30 PM 36.5°F2.5°C 27.2°F-2.7°C 69% 12.0 mph SW19.3 kmh SW 16.0 mph25.7 kmh 30.11 in1019.6 mb 0.00 in0.0 mm 0.00 in0.0 mm 0.02 in0.5 mm
10:35 PM 36.3°F2.4°C 27.3°F-2.6°C 70% 8.0 mph SSW12.9 kmh SSW 16.0 mph25.7 kmh 30.11 in1019.6 mb 0.00 in0.0 mm 0.00 in0.0 mm 0.02 in0.5 mm
10:40 PM 35.9°F2.2°C 27.7°F-2.4°C 72% 14.0 mph SW22.5 kmh SW 16.0 mph25.7 kmh 30.11 in1019.6 mb 0.00 in0.0 mm 0.00 in0.0 mm 0.02 in0.5 mm
10:45 PM 35.6°F2.0°C 28.1°F-2.2°C 74% 9.0 mph SW14.5 kmh SW 16.0 mph25.7 kmh 30.11 in1019.6 mb 0.00 in0.0 mm 0.00 in0.0 mm 0.02 in0.5 mm
10:50 PM 35.4°F1.9°C 28.2°F-2.1°C 75% 10.0 mph SW16.1 kmh SW 14.0 mph22.5 kmh 30.11 in1019.6 mb 0.00 in0.0 mm 0.00 in0.0 mm 0.02 in0.5 mm
10:55 PM 35.2°F1.8°C 28.7°F-1.8°C 77% 5.0 mph SSW8.0 kmh SSW 14.0 mph22.5 kmh 30.11 in1019.6 mb 0.00 in0.0 mm 0.00 in0.0 mm 0.02 in0.5 mm
11:00 PM 35.0°F1.7°C 28.8°F-1.8°C 78% 7.0 mph SSW11.3 kmh SSW 13.0 mph20.9 kmh 30.11 in1019.6 mb 0.00 in0.0 mm 0.00 in0.0 mm 0.02 in0.5 mm
11:05 PM 34.9°F1.6°C 28.7°F-1.8°C 78% 9.0 mph SW14.5 kmh SW 13.0 mph20.9 kmh 30.11 in1019.6 mb 0.00 in0.0 mm 0.00 in0.0 mm 0.02 in0.5 mm
11:10 PM 34.8°F1.6°C 28.9°F-1.7°C 79% 8.0 mph SW12.9 kmh SW 12.0 mph19.3 kmh 30.11 in1019.6 mb 0.00 in0.0 mm 0.00 in0.0 mm 0.02 in0.5 mm
11:15 PM 34.6°F1.4°C 29.0°F-1.7°C 80% 9.0 mph SW14.5 kmh SW 12.0 mph19.3 kmh 30.11 in1019.6 mb 0.00 in0.0 mm 0.00 in0.0 mm 0.02 in0.5 mm
11:20 PM 34.6°F1.4°C 29.0°F-1.7°C 80% 6.0 mph SW9.7 kmh SW 11.0 mph17.7 kmh 30.11 in1019.6 mb 0.00 in0.0 mm 0.00 in0.0 mm 0.02 in0.5 mm
11:25 PM 34.6°F1.4°C 29.4°F-1.4°C 81% 12.0 mph SW19.3 kmh SW 12.0 mph19.3 kmh 30.11 in1019.6 mb 0.00 in0.0 mm 0.00 in0.0 mm 0.02 in0.5 mm
11:30 PM 34.5°F1.4°C 29.3°F-1.5°C 81% 7.0 mph SW11.3 kmh SW 12.0 mph19.3 kmh 30.11 in1019.6 mb 0.00 in0.0 mm 0.00 in0.0 mm 0.02 in0.5 mm
11:35 PM 34.4°F1.3°C 29.2°F-1.6°C 81% 6.0 mph SW9.7 kmh SW 12.0 mph19.3 kmh 30.10 in1019.3 mb 0.00 in0.0 mm 0.00 in0.0 mm 0.02 in0.5 mm
11:40 PM 34.4°F1.3°C 29.5°F-1.4°C 82% 9.0 mph SW14.5 kmh SW 12.0 mph19.3 kmh 30.10 in1019.3 mb 0.00 in0.0 mm 0.00 in0.0 mm 0.02 in0.5 mm
11:45 PM 34.3°F1.3°C 29.4°F-1.4°C 82% 10.0 mph SW16.1 kmh SW 12.0 mph19.3 kmh 30.10 in1019.3 mb 0.00 in0.0 mm 0.00 in0.0 mm 0.02 in0.5 mm
11:50 PM 34.2°F1.2°C 29.3°F-1.5°C 82% 7.0 mph SW11.3 kmh SW 12.0 mph19.3 kmh 30.09 in1019.0 mb 0.00 in0.0 mm 0.00 in0.0 mm 0.02 in0.5 mm
11:55 PM 34.1°F1.2°C 29.5°F-1.4°C 83% 7.0 mph S11.3 kmh S 12.0 mph19.3 kmh 30.09 in1019.0 mb 0.00 in0.0 mm 0.00 in0.0 mm 0.02 in0.5 mm